Time;durP1;ratioP1;P1;durP2;ratioP2;P2;SDS_P1;SDS_P2;PMS_P1;PMS_P2;Temp;Humidity;BMP_temperature;BMP_pressure;BME280_temperature;BME280_humidity;BME280_pressure;Samples;Min_cycle;Max_cycle;Signal;HPM_P1;HPM_P2
2023/04/07 00:00:17;;;;;;;24.23;18.80;;;;;;;5.59;45.81;100955.41;5079690;28;20379;-75
2023/04/07 00:02:43;;;;;;;27.20;20.73;;;;;;;5.62;45.89;100964.81;5086891;28;20394;-75
2023/04/07 00:05:08;;;;;;;21.02;10.00;;;;;;;5.36;46.77;100971.34;5077170;28;20919;-76
2023/04/07 00:07:34;;;;;;;18.83;10.45;;;;;;;5.04;47.58;100960.94;5084388;28;20420;-76
2023/04/07 00:10:00;;;;;;;19.33;9.40;;;;;;;5.09;47.88;100963.16;5073958;28;20388;-76
2023/04/07 00:12:25;;;;;;;18.57;9.17;;;;;;;4.99;48.09;100960.47;5088621;28;20765;-76
2023/04/07 00:14:51;;;;;;;23.73;11.23;;;;;;;5.09;47.80;100971.03;5076031;28;20391;-76
2023/04/07 00:17:16;;;;;;;17.85;10.27;;;;;;;5.08;47.89;100967.59;5085128;28;20387;-77
2023/04/07 00:19:42;;;;;;;19.63;10.50;;;;;;;5.06;47.41;100961.63;5085199;28;20387;-76
2023/04/07 00:22:08;;;;;;;19.80;9.48;;;;;;;5.04;47.59;100954.81;5086315;28;20443;-75
2023/04/07 00:24:34;;;;;;;16.75;8.88;;;;;;;4.96;47.76;100961.53;5091044;28;20920;-75
2023/04/07 00:27:00;;;;;;;20.85;10.35;;;;;;;5.09;47.06;100957.91;5074807;28;20390;-75
2023/04/07 00:29:25;;;;;;;19.02;9.40;;;;;;;5.07;47.32;100963.28;5081793;28;20741;-76
2023/04/07 00:31:51;;;;;;;20.63;9.17;;;;;;;4.84;47.55;100962.56;5092577;28;20933;-76
2023/04/07 00:34:16;;;;;;;22.17;10.00;;;;;;;5.07;47.61;100967.72;5078799;28;20375;-76
2023/04/07 00:36:42;;;;;;;16.90;8.83;;;;;;;5.14;47.12;100956.53;5074460;28;20379;-76
2023/04/07 00:39:07;;;;;;;17.03;8.90;;;;;;;5.15;47.07;100967.91;5083814;28;20512;-76
2023/04/07 00:41:34;;;;;;;17.57;9.10;;;;;;;5.17;47.06;100964.19;5076198;28;20431;-76
2023/04/07 00:44:00;;;;;;;19.13;9.43;;;;;;;5.10;47.39;100957.78;5091370;28;20397;-76
2023/04/07 00:46:26;;;;;;;20.23;9.07;;;;;;;5.19;47.16;100958.81;5082158;28;20446;-76
2023/04/07 00:48:51;;;;;;;16.07;8.67;;;;;;;5.25;46.93;100963.53;5083431;28;20439;-76
2023/04/07 00:51:20;;;;;;;15.45;9.27;;;;;;;5.37;46.44;100961.69;5072002;28;20371;-75
2023/04/07 00:53:46;;;;;;;21.55;9.10;;;;;;;5.49;46.47;100963.25;5085206;28;20394;-76
2023/04/07 00:56:12;;;;;;;17.90;9.47;;;;;;;5.51;46.30;100949.97;5091825;28;20382;-76
2023/04/07 00:58:37;;;;;;;17.00;8.65;;;;;;;5.47;46.16;100959.09;5091439;28;20406;-76
2023/04/07 01:01:08;;;;;;;17.67;9.55;;;;;;;5.41;46.38;100955.19;5089422;28;20378;-75
2023/04/07 01:03:40;;;;;;;17.42;9.13;;;;;;;5.42;46.49;100954.22;5082067;28;20410;-77
2023/04/07 01:06:07;;;;;;;16.80;9.85;;;;;;;5.49;46.20;100949.25;5074336;28;20878;-76
2023/04/07 01:08:52;;;;;;;22.05;10.75;;;;;;;5.45;46.39;100946.06;5086182;28;20936;-76
2023/04/07 01:11:20;;;;;;;19.20;10.23;;;;;;;5.47;46.44;100957.28;5059682;28;20862;-76
2023/04/07 01:13:49;;;;;;;20.00;9.57;;;;;;;5.62;45.76;100952.53;5080110;28;20729;-76
2023/04/07 01:16:29;;;;;;;17.10;8.70;;;;;;;5.62;45.53;100941.16;5077748;28;20387;-76
2023/04/07 01:18:59;;;;;;;16.45;8.52;;;;;;;5.62;45.53;100944.63;5087935;28;20486;-76
2023/04/07 01:21:27;;;;;;;17.65;8.40;;;;;;;5.70;45.81;100949.22;5085652;28;20375;-76
2023/04/07 01:24:24;;;;;;;18.20;8.50;;;;;;;5.72;45.23;100950.75;5080849;28;20397;-76
2023/04/07 01:26:50;;;;;;;15.85;8.05;;;;;;;5.64;45.76;100944.50;5087948;28;20389;-76
2023/04/07 01:29:24;;;;;;;16.40;8.20;;;;;;;5.71;45.91;100948.28;5076395;28;20959;-76
2023/04/07 01:31:50;;;;;;;17.90;8.18;;;;;;;5.67;45.49;100942.44;5081382;28;20395;-76
2023/04/07 01:34:17;;;;;;;15.55;8.27;;;;;;;5.75;45.36;100947.03;5084699;28;20410;-76
2023/04/07 01:36:45;;;;;;;16.77;8.60;;;;;;;5.66;45.37;100940.78;5080750;28;20392;-75
2023/04/07 01:39:12;;;;;;;16.08;8.48;;;;;;;5.65;45.21;100940.91;5086919;28;20401;-76
2023/04/07 01:41:39;;;;;;;19.55;8.43;;;;;;;5.72;45.48;100947.28;5074782;28;20387;-75
2023/04/07 01:44:06;;;;;;;14.70;7.95;;;;;;;5.61;45.68;100934.25;5071124;28;20463;-75
2023/04/07 01:46:32;;;;;;;16.90;7.57;;;;;;;5.52;45.90;100943.75;5086870;28;20389;-75
2023/04/07 01:48:59;;;;;;;15.88;8.60;;;;;;;5.57;45.37;100946.81;5073114;28;20570;-75
2023/04/07 01:51:26;;;;;;;15.07;7.70;;;;;;;5.53;45.50;100946.25;5085661;28;20399;-76
2023/04/07 01:53:51;;;;;;;16.50;8.23;;;;;;;5.61;45.59;100956.09;5072328;28;20489;-76
2023/04/07 01:56:17;;;;;;;16.53;7.97;;;;;;;5.60;45.67;100950.97;5083916;28;20543;-75
2023/04/07 01:58:42;;;;;;;17.23;8.17;;;;;;;5.57;46.05;100946.00;5073692;28;20383;-75
2023/04/07 02:01:08;;;;;;;15.77;8.13;;;;;;;5.55;45.54;100951.38;5087961;28;20850;-75
2023/04/07 02:03:48;;;;;;;19.50;8.30;;;;;;;5.46;46.27;100950.38;5077767;28;20404;-74
2023/04/07 02:06:18;;;;;;;17.58;8.90;;;;;;;5.36;46.01;100946.84;5078594;28;20385;-75
2023/04/07 02:08:48;;;;;;;16.20;8.50;;;;;;;5.38;46.43;100947.56;5087003;28;20469;-75
2023/04/07 02:11:16;;;;;;;19.20;9.07;;;;;;;5.61;46.06;100952.66;5085850;28;20394;-75
2023/04/07 02:13:43;;;;;;;19.17;8.85;;;;;;;5.49;46.20;100946.63;5078827;28;20757;-75
2023/04/07 02:16:09;;;;;;;17.13;8.73;;;;;;;5.41;46.23;100947.28;5078408;28;20390;-75
2023/04/07 02:18:36;;;;;;;16.95;8.48;;;;;;;5.36;46.37;100960.00;5071250;28;20395;-75
2023/04/07 02:21:03;;;;;;;18.10;8.93;;;;;;;5.23;46.19;100949.69;5086908;28;20388;-75
2023/04/07 02:23:29;;;;;;;18.48;9.02;;;;;;;5.20;46.80;100957.81;5084778;28;20402;-75
2023/04/07 02:25:56;;;;;;;21.98;9.80;;;;;;;5.30;46.69;100963.16;5080954;28;20456;-76
2023/04/07 02:28:22;;;;;;;19.55;9.65;;;;;;;5.23;46.65;100954.94;5082977;28;20456;-76
2023/04/07 02:30:48;;;;;;;19.07;9.40;;;;;;;5.31;46.97;100955.16;5082100;28;20893;-76
2023/04/07 02:33:13;;;;;;;20.53;10.00;;;;;;;5.26;46.77;100959.94;5082887;28;20373;-76
2023/04/07 02:35:39;;;;;;;17.30;10.20;;;;;;;5.28;46.91;100950.13;5090077;28;20389;-76
2023/04/07 02:38:04;;;;;;;18.73;9.88;;;;;;;5.20;46.80;100951.75;5087829;28;20381;-76
2023/04/07 02:40:30;;;;;;;18.63;10.05;;;;;;;5.22;46.95;100953.28;5076051;28;20423;-76
2023/04/07 02:42:55;;;;;;;20.20;10.50;;;;;;;5.20;47.10;100957.81;5084774;28;20386;-77
2023/04/07 02:45:21;;;;;;;21.27;10.43;;;;;;;5.21;47.39;100956.88;5074290;28;20396;-77
2023/04/07 02:47:46;;;;;;;19.17;10.33;;;;;;;5.21;47.34;100962.13;5080530;28;20387;-75
2023/04/07 02:50:12;;;;;;;21.27;10.80;;;;;;;5.29;47.46;100967.56;5081203;28;20389;-75
2023/04/07 02:52:37;;;;;;;22.37;11.23;;;;;;;5.31;47.55;100968.28;5074688;28;20418;-76
2023/04/07 02:55:03;;;;;;;21.30;10.60;;;;;;;5.24;47.75;100972.41;5085675;28;20381;-75
2023/04/07 02:57:29;;;;;;;25.10;11.37;;;;;;;5.24;47.55;100958.41;5074740;28;20437;-75
2023/04/07 02:59:56;;;;;;;25.63;11.90;;;;;;;5.27;47.94;100968.66;5081191;28;20532;-75
2023/04/07 03:02:22;;;;;;;25.60;11.65;;;;;;;5.26;48.18;100959.94;5090341;28;20389;-75
2023/04/07 03:04:50;;;;;;;21.30;10.45;;;;;;;5.30;47.96;100965.78;5096235;28;20465;-75
2023/04/07 03:07:15;;;;;;;22.85;10.27;;;;;;;5.45;47.39;100971.53;5095029;28;20389;-75
2023/04/07 03:09:41;;;;;;;19.07;9.67;;;;;;;5.48;47.81;100977.38;5090571;28;20476;-76
2023/04/07 03:12:06;;;;;;;18.77;10.80;;;;;;;5.49;47.56;100979.03;5079881;28;20731;-76
2023/04/07 03:14:31;;;;;;;18.20;11.10;;;;;;;5.53;47.52;100983.06;5078593;28;20444;-76
2023/04/07 03:16:57;;;;;;;20.40;11.20;;;;;;;5.46;48.05;100979.28;5073058;28;20876;-76
2023/04/07 03:19:22;;;;;;;18.43;10.80;;;;;;;5.57;47.34;100977.56;5078814;28;20393;-76
2023/04/07 03:21:48;;;;;;;20.53;11.50;;;;;;;5.66;47.65;100971.50;5079623;28;20444;-75
2023/04/07 03:24:13;;;;;;;20.92;11.88;;;;;;;5.78;47.23;100982.75;5082127;28;20411;-75
2023/04/07 03:26:39;;;;;;;24.90;12.43;;;;;;;5.71;47.50;100969.31;5074749;28;20401;-76
2023/04/07 03:29:04;;;;;;;25.60;13.30;;;;;;;5.64;47.60;100976.06;5075591;28;20395;-75
2023/04/07 03:31:30;;;;;;;26.63;13.97;;;;;;;5.71;47.78;100974.56;5089061;28;20422;-75
2023/04/07 03:33:55;;;;;;;31.45;15.65;;;;;;;5.78;47.72;100980.13;5084815;28;20390;-76
2023/04/07 03:36:21;;;;;;;25.70;14.20;;;;;;;5.85;47.29;100979.47;5082979;28;20391;-76
2023/04/07 03:38:47;;;;;;;26.17;13.17;;;;;;;5.78;47.53;100978.34;5088985;28;20745;-77
2023/04/07 03:41:12;;;;;;;28.63;13.50;;;;;;;5.84;47.50;100977.81;5089258;28;20464;-76
2023/04/07 03:43:38;;;;;;;30.87;16.13;;;;;;;5.93;47.42;100977.00;5084686;28;20516;-76
2023/04/07 03:46:04;;;;;;;24.30;13.47;;;;;;;5.93;47.51;100984.06;5082121;28;20480;-75
2023/04/07 03:48:29;;;;;;;23.75;11.88;;;;;;;5.99;47.29;100978.28;5080156;28;20875;-75
2023/04/07 03:50:55;;;;;;;17.52;9.70;;;;;;;6.06;47.08;100979.44;5089239;28;20468;-76
2023/04/07 03:53:20;;;;;;;14.40;8.53;;;;;;;6.03;47.44;100976.22;5076473;28;20405;-75
2023/04/07 03:55:46;;;;;;;12.50;8.07;;;;;;;6.09;47.29;100979.16;5082759;28;20458;-75
2023/04/07 03:58:12;;;;;;;16.88;9.13;;;;;;;6.20;46.95;100980.84;5082756;28;20390;-75
2023/04/07 04:00:38;;;;;;;13.63;7.90;;;;;;;6.26;46.70;100979.47;5083162;28;20397;-75
2023/04/07 04:03:04;;;;;;;17.10;7.80;;;;;;;6.34;46.94;100986.69;5074797;28;20386;-75
2023/04/07 04:05:30;;;;;;;14.23;7.30;;;;;;;6.30;46.94;100983.50;5088194;28;20402;-77
2023/04/07 04:07:55;;;;;;;11.60;7.47;;;;;;;6.30;47.00;100988.78;5083814;28;20782;-76
2023/04/07 04:10:21;;;;;;;15.43;7.63;;;;;;;6.36;46.88;100992.69;5082340;28;20449;-76
2023/04/07 04:12:47;;;;;;;12.00;7.70;;;;;;;6.30;46.86;100992.25;5073668;28;20832;-76
2023/04/07 04:15:13;;;;;;;16.73;8.35;;;;;;;6.41;46.36;100998.34;5089447;28;20376;-77
2023/04/07 04:17:39;;;;;;;13.48;7.68;;;;;;;6.52;46.31;101008.78;5075220;28;20391;-75
2023/04/07 04:20:05;;;;;;;16.43;8.03;;;;;;;6.60;46.79;101008.09;5073228;28;20476;-75
2023/04/07 04:22:30;;;;;;;15.07;7.30;;;;;;;6.46;46.52;100996.16;5074417;28;20735;-75
2023/04/07 04:24:56;;;;;;;15.83;7.63;;;;;;;6.48;46.52;101012.63;5087403;28;20964;-75
2023/04/07 04:27:22;;;;;;;14.90;7.95;;;;;;;6.50;46.71;101008.91;5087763;28;20394;-75
2023/04/07 04:29:47;;;;;;;14.20;7.82;;;;;;;6.59;46.12;101011.69;5083852;28;20394;-76
2023/04/07 04:32:13;;;;;;;15.20;7.55;;;;;;;6.48;46.44;101023.19;5082206;28;20415;-75
2023/04/07 04:34:40;;;;;;;14.55;8.57;;;;;;;6.51;46.48;101026.38;5085167;28;20409;-75
2023/04/07 04:37:07;;;;;;;15.90;8.57;;;;;;;6.52;46.36;101021.97;5077929;28;20425;-76
2023/04/07 04:39:32;;;;;;;15.13;8.05;;;;;;;6.49;46.40;101024.84;5072668;28;20379;-76
2023/04/07 04:41:58;;;;;;;14.02;8.40;;;;;;;6.51;46.84;101030.81;5089682;28;20395;-75
2023/04/07 04:44:24;;;;;;;15.30;8.38;;;;;;;6.49;46.83;101044.13;5082236;28;20403;-76
2023/04/07 04:46:50;;;;;;;15.85;8.60;;;;;;;6.49;46.78;101044.13;5091216;28;20407;-76
2023/04/07 04:49:17;;;;;;;19.27;8.88;;;;;;;6.55;47.04;101045.38;5078050;28;20405;-77
2023/04/07 04:51:43;;;;;;;22.38;9.50;;;;;;;6.51;46.95;101038.72;5082676;28;20389;-76
2023/04/07 04:54:08;;;;;;;12.40;8.02;;;;;;;6.51;47.39;101046.63;5089302;28;20385;-77
2023/04/07 04:56:34;;;;;;;11.53;7.67;;;;;;;6.52;47.50;101045.66;5080849;28;20466;-76
2023/04/07 04:58:59;;;;;;;19.47;9.60;;;;;;;6.65;47.11;101040.97;5087632;28;20381;-75
2023/04/07 05:01:25;;;;;;;12.33;7.60;;;;;;;6.57;47.33;101053.13;5075107;28;20746;-77
2023/04/07 05:03:50;;;;;;;13.60;7.75;;;;;;;6.40;47.70;101047.56;5075217;28;20395;-76
2023/04/07 05:06:16;;;;;;;15.10;7.83;;;;;;;6.54;47.50;101056.88;5090728;28;20406;-76
2023/04/07 05:08:41;;;;;;;16.80;9.90;;;;;;;6.63;47.57;101057.88;5088946;28;20367;-76
2023/04/07 05:11:08;;;;;;;16.38;8.70;;;;;;;6.61;47.71;101065.06;5089091;28;20851;-77
2023/04/07 05:13:33;;;;;;;20.13;10.23;;;;;;;6.67;48.14;101075.91;5074760;28;20496;-77
2023/04/07 05:15:59;;;;;;;21.47;12.23;;;;;;;6.74;48.13;101063.03;5072178;28;20387;-76
2023/04/07 05:18:24;;;;;;;25.23;12.93;;;;;;;6.74;48.53;101070.09;5071664;28;20363;-77
2023/04/07 05:20:50;;;;;;;15.03;9.93;;;;;;;6.61;49.13;101075.59;5079691;28;20828;-76
2023/04/07 05:23:15;;;;;;;17.10;9.97;;;;;;;6.45;49.07;101073.50;5086318;28;20470;-75
2023/04/07 05:25:41;;;;;;;19.60;9.93;;;;;;;6.59;49.20;101088.06;5089217;28;20381;-77
2023/04/07 05:28:07;;;;;;;18.63;9.73;;;;;;;6.53;49.31;101072.81;5075489;28;20423;-75
2023/04/07 05:30:32;;;;;;;18.60;9.27;;;;;;;6.60;49.62;101082.69;5083013;28;20468;-76
2023/04/07 05:32:58;;;;;;;17.90;8.87;;;;;;;6.58;50.12;101092.53;5092142;28;20427;-76
2023/04/07 05:35:23;;;;;;;19.10;9.98;;;;;;;6.47;50.24;101085.56;5080560;28;20854;-76
2023/04/07 05:37:49;;;;;;;15.23;8.60;;;;;;;6.57;50.33;101084.75;5077775;28;20390;-77
2023/04/07 05:40:14;;;;;;;18.10;9.87;;;;;;;6.62;50.27;101087.81;5079907;28;20440;-76
2023/04/07 05:42:40;;;;;;;19.23;10.63;;;;;;;6.91;49.98;101098.41;5088907;28;20916;-78
2023/04/07 05:45:07;;;;;;;18.77;9.82;;;;;;;6.97;49.84;101097.88;5091055;28;20472;-76
2023/04/07 05:47:32;;;;;;;17.30;9.27;;;;;;;6.73;50.32;101092.13;5091034;28;20869;-75
2023/04/07 05:49:58;;;;;;;20.30;12.10;;;;;;;6.98;49.95;101102.16;5090898;28;20373;-76
2023/04/07 05:52:23;;;;;;;18.43;10.20;;;;;;;7.05;49.85;101103.28;5091278;28;20405;-78
2023/04/07 05:54:49;;;;;;;24.03;10.27;;;;;;;7.11;49.80;101101.88;5083220;28;20399;-77
2023/04/07 05:57:15;;;;;;;14.98;10.68;;;;;;;7.21;49.55;101110.66;5085563;28;20489;-76
2023/04/07 05:59:40;;;;;;;17.85;10.40;;;;;;;7.05;50.02;101099.81;5089792;28;20374;-75
2023/04/07 06:02:06;;;;;;;17.95;10.52;;;;;;;6.98;50.59;101103.97;5081725;28;20379;-76
2023/04/07 06:04:34;;;;;;;18.95;11.57;;;;;;;7.00;50.26;101100.22;5069704;28;20403;-78
2023/04/07 06:07:03;;;;;;;16.60;10.70;;;;;;;7.13;50.35;101114.94;5083076;28;20787;-77
2023/04/07 06:09:28;;;;;;;19.85;11.75;;;;;;;7.26;49.87;101112.88;5085544;28;20414;-75
2023/04/07 06:11:53;;;;;;;18.93;10.20;;;;;;;7.22;50.12;101111.47;5084224;28;20843;-80
2023/04/07 06:14:19;;;;;;;17.10;11.40;;;;;;;7.34;49.93;101109.53;5086433;28;20944;-75
2023/04/07 06:16:45;;;;;;;16.58;9.93;;;;;;;7.23;49.66;101118.44;5091774;28;20917;-77
2023/04/07 06:19:10;;;;;;;18.40;10.23;;;;;;;7.17;50.23;101098.72;5092960;28;20369;-76
2023/04/07 06:21:36;;;;;;;14.07;10.00;;;;;;;7.38;49.74;101106.50;5092990;28;20385;-75
2023/04/07 06:24:01;;;;;;;18.17;11.27;;;;;;;7.43;49.51;101100.78;5091714;28;20404;-76
2023/04/07 06:26:27;;;;;;;22.45;13.52;;;;;;;7.52;49.26;101110.50;5091588;28;20737;-76
2023/04/07 06:28:53;;;;;;;18.55;11.23;;;;;;;7.71;48.81;101108.84;5070976;28;20379;-77
2023/04/07 06:31:18;;;;;;;17.92;10.60;;;;;;;7.85;48.57;101116.31;5072606;28;20715;-77
2023/04/07 06:33:44;;;;;;;19.67;11.37;;;;;;;7.84;48.39;101115.44;5072570;28;20375;-75
2023/04/07 06:36:10;;;;;;;25.00;11.17;;;;;;;7.96;48.42;101108.22;5099070;28;20393;-76
2023/04/07 06:38:36;;;;;;;19.77;11.88;;;;;;;8.01;48.20;101113.91;5099516;28;20377;-75
2023/04/07 06:41:01;;;;;;;16.50;10.10;;;;;;;7.66;48.60;101110.06;5096188;28;20472;-76
2023/04/07 06:43:27;;;;;;;15.73;10.90;;;;;;;7.50;49.03;101122.19;5091390;28;20412;-76
2023/04/07 06:45:53;;;;;;;13.33;10.13;;;;;;;7.54;49.10;101118.28;5092801;28;20401;-77
2023/04/07 06:48:18;;;;;;;18.13;10.45;;;;;;;7.60;48.94;101121.19;5093632;28;20389;-76
2023/04/07 06:50:50;;;;;;;31.70;27.13;;;;;;;7.69;49.46;101124.81;5093548;28;20385;-76
2023/04/07 06:53:16;;;;;;;24.63;16.60;;;;;;;7.88;48.89;101118.63;5094232;28;20409;-76
2023/04/07 06:55:41;;;;;;;14.88;10.77;;;;;;;8.06;48.18;101118.72;5095831;28;20462;-77
2023/04/07 06:58:07;;;;;;;17.57;11.40;;;;;;;8.22;48.54;101126.88;5095339;28;20526;-77
2023/04/07 07:00:33;;;;;;;19.00;13.50;;;;;;;8.22;48.26;101126.88;5094681;28;20396;-77
2023/04/07 07:02:58;;;;;;;19.03;13.73;;;;;;;8.24;48.20;101127.56;5075680;28;20379;-75
2023/04/07 07:05:24;;;;;;;22.17;11.02;;;;;;;8.31;48.06;101137.56;5074915;28;20403;-74
2023/04/07 07:07:50;;;;;;;17.98;12.30;;;;;;;8.30;48.22;101131.47;5074715;28;20878;-75
2023/04/07 07:10:16;;;;;;;17.52;11.68;;;;;;;8.46;48.14;101137.94;5074771;28;20474;-76
2023/04/07 07:12:41;;;;;;;16.67;10.82;;;;;;;8.42;47.45;101137.41;5074022;28;20462;-76
2023/04/07 07:15:07;;;;;;;21.38;16.85;;;;;;;8.43;48.37;101147.00;5074619;28;20382;-75
2023/04/07 07:17:33;;;;;;;18.00;10.30;;;;;;;8.17;48.50;101146.78;5074256;28;20379;-75
2023/04/07 07:19:58;;;;;;;22.80;11.73;;;;;;;8.37;49.05;101140.47;5074603;28;20386;-78
2023/04/07 07:22:24;;;;;;;15.87;10.57;;;;;;;8.72;50.83;101140.75;5078082;28;20372;-77
2023/04/07 07:24:50;;;;;;;17.33;10.93;;;;;;;8.78;48.91;101145.44;5091598;28;20463;-78
2023/04/07 07:27:15;;;;;;;17.77;11.07;;;;;;;8.95;50.44;101157.88;5095531;28;20392;-78
2023/04/07 07:29:41;;;;;;;15.50;10.60;;;;;;;9.08;49.78;101160.16;5095696;28;20373;-77
2023/04/07 07:32:06;;;;;;;14.80;10.17;;;;;;;8.84;48.27;101144.88;5095172;28;20377;-77
2023/04/07 07:34:31;;;;;;;16.63;10.93;;;;;;;9.05;48.39;101159.63;5094487;28;20380;-77
2023/04/07 07:36:58;;;;;;;13.93;11.03;;;;;;;9.18;49.36;101155.66;5079284;28;20391;-78
2023/04/07 07:39:24;;;;;;;16.73;11.55;;;;;;;9.27;48.52;101155.72;5074251;28;20390;-77
2023/04/07 07:41:50;;;;;;;33.42;24.27;;;;;;;9.27;48.49;101167.13;5088830;28;20381;-76
2023/04/07 07:44:15;;;;;;;14.63;9.35;;;;;;;9.16;47.99;101162.91;5080856;28;20805;-78
2023/04/07 07:46:41;;;;;;;18.02;11.43;;;;;;;9.02;48.11;101163.41;5094752;28;20498;-78
2023/04/07 07:49:06;;;;;;;15.87;10.20;;;;;;;8.91;48.36;101167.09;5089122;28;20384;-77
2023/04/07 07:51:32;;;;;;;15.27;11.17;;;;;;;9.09;48.32;101166.28;5073040;28;20387;-80
2023/04/07 07:53:57;;;;;;;14.98;11.40;;;;;;;8.99;48.32;101163.69;5082909;28;20393;-78
2023/04/07 07:56:23;;;;;;;13.73;10.50;;;;;;;9.08;47.66;101169.91;5094983;28;20460;-78
2023/04/07 07:58:48;;;;;;;15.00;10.70;;;;;;;9.22;47.80;101161.47;5097254;28;20445;-78
2023/04/07 08:01:14;;;;;;;9.97;8.47;;;;;;;8.98;47.37;101176.09;5097686;28;20381;-78
2023/04/07 08:03:39;;;;;;;14.13;10.30;;;;;;;8.86;48.14;101173.78;5088190;28;20815;-77
2023/04/07 08:06:06;;;;;;;11.88;9.85;;;;;;;9.09;47.90;101180.34;5088508;28;20381;-78
2023/04/07 08:08:31;;;;;;;18.33;11.93;;;;;;;9.29;47.83;101178.41;5089175;28;20398;-77
2023/04/07 08:10:57;;;;;;;18.52;11.00;;;;;;;9.44;46.99;101178.72;5089696;28;20373;-78
2023/04/07 08:13:23;;;;;;;14.67;9.57;;;;;;;9.13;46.74;101168.47;5079749;28;20456;-76
2023/04/07 08:15:49;;;;;;;14.68;9.75;;;;;;;9.17;46.77;101180.41;5081609;28;20387;-77
2023/04/07 08:18:15;;;;;;;19.88;11.25;;;;;;;9.26;47.13;101181.34;5089103;28;20444;-77
2023/04/07 08:20:40;;;;;;;18.02;10.85;;;;;;;9.37;46.55;101183.75;5073953;28;20383;-77
2023/04/07 08:23:05;;;;;;;25.03;15.90;;;;;;;9.49;46.32;101187.03;5085611;28;20391;-78
2023/04/07 08:25:31;;;;;;;18.43;12.27;;;;;;;9.56;46.27;101189.88;5075444;28;20387;-77
2023/04/07 08:27:56;;;;;;;22.80;14.25;;;;;;;9.66;46.79;101185.34;5072837;28;20409;-77
2023/04/07 08:30:22;;;;;;;18.07;12.93;;;;;;;9.70;47.18;101188.53;5092422;28;20377;-81
2023/04/07 08:32:48;;;;;;;19.00;12.00;;;;;;;9.66;46.83;101193.28;5084723;28;20396;-78
2023/04/07 08:35:14;;;;;;;16.77;11.20;;;;;;;9.74;46.90;101195.16;5097608;28;20776;-79
2023/04/07 08:37:41;;;;;;;18.73;12.10;;;;;;;9.62;46.82;101196.41;5099770;28;20382;-79
2023/04/07 08:40:06;;;;;;;19.10;12.43;;;;;;;9.68;47.34;101195.78;5080155;28;20377;-79
2023/04/07 08:42:34;;;;;;;16.13;10.98;;;;;;;9.61;46.94;101210.63;5092919;28;20397;-76
2023/04/07 08:45:05;;;;;;;15.35;9.65;;;;;;;9.44;47.33;101186.66;5080061;28;20410;-78
2023/04/07 08:47:35;;;;;;;13.60;9.85;;;;;;;8.96;48.14;101193.91;5095586;28;20373;-79
2023/04/07 08:50:02;;;;;;;13.68;10.48;;;;;;;8.93;48.52;101199.50;5080243;28;20390;-78
2023/04/07 08:52:45;;;;;;;15.07;10.67;;;;;;;8.87;49.48;101204.53;5094005;28;20397;-77
2023/04/07 08:55:11;;;;;;;16.02;10.90;;;;;;;9.06;49.27;101196.50;5093175;28;20373;-78
2023/04/07 08:57:37;;;;;;;19.27;10.60;;;;;;;9.02;49.41;101199.59;5084441;28;20449;-77
2023/04/07 09:00:07;;;;;;;14.77;9.82;;;;;;;8.93;49.22;101209.22;5083491;28;20425;-77
2023/04/07 09:02:34;;;;;;;17.57;10.60;;;;;;;9.09;49.09;101211.22;5082441;28;20725;-77
2023/04/07 09:05:02;;;;;;;18.33;11.40;;;;;;;9.10;49.52;101210.25;5093497;28;20400;-78
2023/04/07 09:07:27;;;;;;;18.05;11.93;;;;;;;9.38;49.56;101209.25;5093145;28;20373;-78
2023/04/07 09:09:54;;;;;;;16.73;11.63;;;;;;;9.32;49.22;101214.31;5084312;28;20391;-78
2023/04/07 09:12:20;;;;;;;18.58;10.38;;;;;;;9.35;48.82;101219.31;5073059;28;20386;-76
2023/04/07 09:14:46;;;;;;;16.85;10.85;;;;;;;9.31;48.56;101229.34;5071288;28;20375;-78
2023/04/07 09:17:11;;;;;;;17.93;10.67;;;;;;;9.37;48.62;101217.34;5073369;28;20379;-78
2023/04/07 09:19:37;;;;;;;15.47;10.57;;;;;;;9.77;48.78;101221.34;5077538;28;20369;-77
2023/04/07 09:22:02;;;;;;;20.77;10.93;;;;;;;9.81;48.69;101221.88;5071807;28;20390;-80
2023/04/07 09:24:30;;;;;;;19.50;10.30;;;;;;;9.66;48.52;101227.69;5071342;28;20407;-78
2023/04/07 09:27:12;;;;;;;16.60;10.70;;;;;;;9.84;48.73;101229.53;5071786;28;20536;-79
2023/04/07 09:29:39;;;;;;;37.40;22.27;;;;;;;10.14;48.12;101220.31;5079899;28;20465;-79
2023/04/07 09:32:05;;;;;;;16.70;11.68;;;;;;;10.12;47.72;101220.47;5082364;28;20381;-78
2023/04/07 09:34:33;;;;;;;15.57;9.90;;;;;;;10.14;47.34;101218.50;5091089;28;20373;-78
2023/04/07 09:36:59;;;;;;;31.58;25.58;;;;;;;10.09;47.35;101219.97;5091872;28;20377;-79
2023/04/07 09:39:25;;;;;;;12.18;8.88;;;;;;;9.89;47.83;101219.31;5102115;28;20372;-77
2023/04/07 09:41:51;;;;;;;14.57;8.68;;;;;;;9.66;47.80;101226.88;5107216;28;20445;-78
2023/04/07 09:44:24;;;;;;;18.52;11.55;;;;;;;9.92;47.51;101222.47;5103625;28;20393;-78
2023/04/07 09:46:57;;;;;;;15.93;11.55;;;;;;;10.02;47.36;101216.25;5076110;28;20391;-78
2023/04/07 09:49:26;;;;;;;17.73;11.32;;;;;;;10.05;47.51;101216.78;5091719;28;20411;-77
2023/04/07 09:51:57;;;;;;;23.27;14.52;;;;;;;10.16;47.38;101221.00;5090913;28;20737;-79
2023/04/07 09:54:36;;;;;;;30.98;23.98;;;;;;;10.16;47.08;101213.06;5093562;28;20384;-78
2023/04/07 09:57:06;;;;;;;16.35;10.68;;;;;;;10.37;47.00;101210.09;5096377;28;20380;-77
2023/04/07 09:59:34;;;;;;;12.73;7.85;;;;;;;10.44;46.09;101223.53;5094922;28;20373;-82
2023/04/07 10:02:00;;;;;;;26.27;20.10;;;;;;;10.44;46.83;101228.81;5095804;28;20427;-80
2023/04/07 10:04:27;;;;;;;12.65;7.85;;;;;;;10.60;46.05;101214.84;5093148;28;20408;-79
2023/04/07 10:06:54;;;;;;;15.00;7.90;;;;;;;10.48;45.00;101219.59;5093408;28;20461;-79
2023/04/07 10:09:22;;;;;;;16.00;9.82;;;;;;;10.43;45.11;101219.22;5092817;28;20373;-78
2023/04/07 10:11:50;;;;;;;12.43;8.63;;;;;;;10.58;45.29;101216.81;5093235;28;20522;-79
2023/04/07 10:14:17;;;;;;;13.00;8.13;;;;;;;10.65;44.75;101223.16;5078990;28;20394;-77
2023/04/07 10:16:43;;;;;;;12.87;7.67;;;;;;;10.58;44.72;101230.06;5079350;28;20378;-78
2023/04/07 10:19:10;;;;;;;12.45;7.93;;;;;;;10.48;44.68;101223.06;5075718;28;20386;-78
2023/04/07 10:21:39;;;;;;;13.65;7.72;;;;;;;10.64;45.47;101222.34;5072880;28;20371;-77
2023/04/07 10:24:18;;;;;;;18.33;9.07;;;;;;;10.58;44.47;101224.78;5072894;28;20762;-78
2023/04/07 10:26:47;;;;;;;19.30;9.73;;;;;;;10.48;44.61;101225.72;5074612;28;20793;-78
2023/04/07 10:29:14;;;;;;;25.13;16.85;;;;;;;10.72;44.53;101229.50;5074985;28;20379;-78
2023/04/07 10:31:40;;;;;;;15.80;10.02;;;;;;;10.58;43.95;101225.59;5075038;28;20378;-77
2023/04/07 10:34:06;;;;;;;21.30;13.47;;;;;;;10.59;44.69;101232.56;5074799;28;20371;-78
2023/04/07 10:36:32;;;;;;;13.20;8.67;;;;;;;10.69;44.48;101229.78;5074498;28;20374;-79
2023/04/07 10:39:07;;;;;;;13.88;9.77;;;;;;;10.67;44.82;101235.25;5076396;28;20375;-80
2023/04/07 10:41:35;;;;;;;14.38;8.82;;;;;;;10.59;43.98;101232.56;5078324;28;20383;-79
2023/04/07 10:44:08;;;;;;;13.63;8.77;;;;;;;10.36;44.54;101231.44;5080235;28;20407;-78
2023/04/07 10:46:48;;;;;;;11.63;8.30;;;;;;;10.29;43.61;101228.53;5086576;28;20464;-80
2023/04/07 10:49:18;;;;;;;12.25;7.35;;;;;;;10.28;43.87;101242.75;5096099;28;20373;-79
2023/04/07 10:51:43;;;;;;;16.85;9.80;;;;;;;10.36;44.81;101239.38;5088618;28;20929;-79
2023/04/07 10:54:19;;;;;;;15.50;8.93;;;;;;;10.41;43.88;101242.41;5094394;28;20377;-78
2023/04/07 10:57:10;;;;;;;17.60;8.93;;;;;;;10.39;43.54;101249.66;5094747;28;20377;-78
2023/04/07 10:59:59;;;;;;;17.27;9.70;;;;;;;10.20;43.69;101238.25;5094084;28;20851;-79
2023/04/07 11:02:24;;;;;;;16.42;8.93;;;;;;;10.09;43.90;101249.09;5089009;28;20877;-78
2023/04/07 11:04:50;;;;;;;17.67;9.75;;;;;;;10.19;44.15;101249.84;5083162;28;20493;-78
2023/04/07 11:07:17;;;;;;;15.20;9.97;;;;;;;10.44;44.47;101250.03;5087984;28;20443;-76
2023/04/07 11:09:42;;;;;;;15.40;10.02;;;;;;;10.38;44.26;101251.47;5095334;28;20392;-79
2023/04/07 11:12:21;;;;;;;17.63;9.77;;;;;;;10.29;44.33;101249.75;5082104;28;20377;-78
2023/04/07 11:14:46;;;;;;;20.05;10.63;;;;;;;10.28;45.23;101262.16;5092399;28;20457;-79
2023/04/07 11:17:14;;;;;;;16.93;9.30;;;;;;;10.42;44.71;101250.19;5090688;28;20458;-77